sensor_id;sensor_type;location;lat;lon;timestamp;pressure;altitude;pressure_sealevel;temperature;humidity
9695;BME280;4690;52.422;13.486;2024-03-23T00:54:34;100539.28;;;10.07;100.00
9695;BME280;4690;52.422;13.486;2024-03-23T00:57:00;100525.91;;;9.99;100.00
9695;BME280;4690;52.422;13.486;2024-03-23T00:59:26;100516.41;;;10.02;100.00
9695;BME280;4690;52.422;13.486;2024-03-23T01:01:57;100530.31;;;10.00;100.00
9695;BME280;4690;52.422;13.486;2024-03-23T01:04:22;100523.78;;;10.01;100.00
9695;BME280;4690;52.422;13.486;2024-03-23T01:06:48;100525.31;;;9.97;100.00
9695;BME280;4690;52.422;13.486;2024-03-23T01:09:14;100527.66;;;9.94;100.00
9695;BME280;4690;52.422;13.486;2024-03-23T01:11:40;100525.63;;;9.89;100.00
9695;BME280;4690;52.422;13.486;2024-03-23T01:14:06;100526.91;;;9.86;100.00
9695;BME280;4690;52.422;13.486;2024-03-23T01:16:32;100515.72;;;9.88;100.00
9695;BME280;4690;52.422;13.486;2024-03-23T01:18:58;100510.41;;;9.93;100.00
9695;BME280;4690;52.422;13.486;2024-03-23T01:21:24;100512.09;;;9.94;100.00
9695;BME280;4690;52.422;13.486;2024-03-23T01:23:50;100519.44;;;9.94;100.00
9695;BME280;4690;52.422;13.486;2024-03-23T01:26:16;100514.56;;;9.96;100.00
9695;BME280;4690;52.422;13.486;2024-03-23T01:28:41;100512.22;;;9.99;100.00
9695;BME280;4690;52.422;13.486;2024-03-23T01:31:07;100502.94;;;10.00;100.00
9695;BME280;4690;52.422;13.486;2024-03-23T01:33:33;100493.28;;;9.98;100.00
9695;BME280;4690;52.422;13.486;2024-03-23T01:35:59;100484.63;;;10.01;100.00
9695;BME280;4690;52.422;13.486;2024-03-23T01:38:24;100470.09;;;10.00;100.00
9695;BME280;4690;52.422;13.486;2024-03-23T01:40:57;100467.13;;;10.02;100.00
9695;BME280;4690;52.422;13.486;2024-03-23T01:43:23;100459.78;;;10.02;100.00
9695;BME280;4690;52.422;13.486;2024-03-23T01:45:49;100448.06;;;9.95;100.00
9695;BME280;4690;52.422;13.486;2024-03-23T01:48:14;100445.31;;;9.95;100.00
9695;BME280;4690;52.422;13.486;2024-03-23T01:50:40;100441.28;;;9.98;100.00
9695;BME280;4690;52.422;13.486;2024-03-23T01:53:06;100445.69;;;9.99;100.00
9695;BME280;4690;52.422;13.486;2024-03-23T01:55:33;100451.78;;;10.01;100.00
9695;BME280;4690;52.422;13.486;2024-03-23T01:57:59;100449.88;;;10.01;100.00
9695;BME280;4690;52.422;13.486;2024-03-23T02:00:25;100447.38;;;10.00;100.00
9695;BME280;4690;52.422;13.486;2024-03-23T02:02:53;100445.94;;;9.97;100.00
9695;BME280;4690;52.422;13.486;2024-03-23T02:05:19;100448.97;;;9.89;100.00
9695;BME280;4690;52.422;13.486;2024-03-23T02:07:44;100448.59;;;9.85;100.00
9695;BME280;4690;52.422;13.486;2024-03-23T02:10:11;100448.59;;;9.85;100.00
9695;BME280;4690;52.422;13.486;2024-03-23T02:12:40;100461.44;;;9.85;100.00
9695;BME280;4690;52.422;13.486;2024-03-23T02:15:06;100461.22;;;9.86;100.00
9695;BME280;4690;52.422;13.486;2024-03-23T02:17:35;100456.13;;;9.72;100.00
9695;BME280;4690;52.422;13.486;2024-03-23T02:20:03;100454.91;;;9.68;100.00
9695;BME280;4690;52.422;13.486;2024-03-23T02:22:38;100439.25;;;9.75;100.00
9695;BME280;4690;52.422;13.486;2024-03-23T02:25:05;100445.66;;;9.69;100.00
9695;BME280;4690;52.422;13.486;2024-03-23T02:27:32;100442.53;;;9.65;100.00
9695;BME280;4690;52.422;13.486;2024-03-23T02:29:59;100442.31;;;9.67;100.00
9695;BME280;4690;52.422;13.486;2024-03-23T02:32:24;100432.19;;;9.67;100.00
9695;BME280;4690;52.422;13.486;2024-03-23T02:34:50;100424.81;;;9.68;100.00
9695;BME280;4690;52.422;13.486;2024-03-23T02:37:16;100422.78;;;9.63;100.00
9695;BME280;4690;52.422;13.486;2024-03-23T02:39:42;100412.66;;;9.63;100.00
9695;BME280;4690;52.422;13.486;2024-03-23T02:42:07;100418.50;;;9.67;100.00
9695;BME280;4690;52.422;13.486;2024-03-23T02:44:33;100409.47;;;9.67;100.00
9695;BME280;4690;52.422;13.486;2024-03-23T02:46:59;100409.09;;;9.63;100.00
9695;BME280;4690;52.422;13.486;2024-03-23T02:49:26;100397.59;;;9.54;100.00
9695;BME280;4690;52.422;13.486;2024-03-23T02:51:52;100392.28;;;9.59;100.00
9695;BME280;4690;52.422;13.486;2024-03-23T02:54:18;100388.00;;;9.52;100.00
9695;BME280;4690;52.422;13.486;2024-03-23T02:56:44;100383.09;;;9.54;100.00
9695;BME280;4690;52.422;13.486;2024-03-23T02:59:09;100371.69;;;9.57;100.00
9695;BME280;4690;52.422;13.486;2024-03-23T03:01:35;100385.53;;;9.62;100.00
9695;BME280;4690;52.422;13.486;2024-03-23T03:04:01;100387.22;;;9.63;100.00
9695;BME280;4690;52.422;13.486;2024-03-23T03:06:29;100379.59;;;9.65;100.00
9695;BME280;4690;52.422;13.486;2024-03-23T03:08:55;100380.59;;;9.52;100.00
9695;BME280;4690;52.422;13.486;2024-03-23T03:11:21;100382.13;;;9.48;100.00
9695;BME280;4690;52.422;13.486;2024-03-23T03:13:46;100374.69;;;9.55;100.00
9695;BME280;4690;52.422;13.486;2024-03-23T03:16:12;100381.28;;;9.48;100.00
9695;BME280;4690;52.422;13.486;2024-03-23T03:18:39;100373.91;;;9.48;100.00
9695;BME280;4690;52.422;13.486;2024-03-23T03:21:06;100376.22;;;9.33;100.00
9695;BME280;4690;52.422;13.486;2024-03-23T03:23:39;100370.28;;;9.36;100.00
9695;BME280;4690;52.422;13.486;2024-03-23T03:26:06;100364.03;;;9.29;100.00
9695;BME280;4690;52.422;13.486;2024-03-23T03:28:32;100354.34;;;9.33;100.00
9695;BME280;4690;52.422;13.486;2024-03-23T03:30:59;100353.72;;;9.31;100.00
9695;BME280;4690;52.422;13.486;2024-03-23T03:33:27;100358.09;;;9.32;100.00
9695;BME280;4690;52.422;13.486;2024-03-23T03:35:54;100344.91;;;9.29;100.00
9695;BME280;4690;52.422;13.486;2024-03-23T03:38:20;100350.31;;;9.35;100.00
9695;BME280;4690;52.422;13.486;2024-03-23T03:40:46;100343.09;;;9.41;100.00
9695;BME280;4690;52.422;13.486;2024-03-23T03:43:12;100345.50;;;9.31;100.00
9695;BME280;4690;52.422;13.486;2024-03-23T03:45:38;100334.81;;;9.29;100.00
9695;BME280;4690;52.422;13.486;2024-03-23T03:48:04;100336.31;;;9.25;100.00
9695;BME280;4690;52.422;13.486;2024-03-23T03:50:30;100339.59;;;9.34;100.00
9695;BME280;4690;52.422;13.486;2024-03-23T03:52:56;100350.88;;;9.37;100.00
9695;BME280;4690;52.422;13.486;2024-03-23T03:55:21;100354.53;;;9.31;100.00
9695;BME280;4690;52.422;13.486;2024-03-23T03:57:47;100346.28;;;9.19;100.00
9695;BME280;4690;52.422;13.486;2024-03-23T04:00:13;100337.69;;;9.34;100.00
9695;BME280;4690;52.422;13.486;2024-03-23T04:02:39;100334.25;;;9.39;100.00
9695;BME280;4690;52.422;13.486;2024-03-23T04:05:06;100334.88;;;9.41;100.00
9695;BME280;4690;52.422;13.486;2024-03-23T04:07:33;100334.41;;;9.44;100.00
9695;BME280;4690;52.422;13.486;2024-03-23T04:09:59;100322.03;;;9.41;100.00
9695;BME280;4690;52.422;13.486;2024-03-23T04:12:26;100317.75;;;9.46;100.00
9695;BME280;4690;52.422;13.486;2024-03-23T04:14:52;100311.94;;;9.42;100.00
9695;BME280;4690;52.422;13.486;2024-03-23T04:17:17;100309.66;;;9.39;100.00
9695;BME280;4690;52.422;13.486;2024-03-23T04:19:44;100307.84;;;9.33;100.00
9695;BME280;4690;52.422;13.486;2024-03-23T04:22:10;100307.69;;;9.28;100.00
9695;BME280;4690;52.422;13.486;2024-03-23T04:24:36;100322.34;;;9.15;100.00
9695;BME280;4690;52.422;13.486;2024-03-23T04:27:02;100316.03;;;9.14;100.00
9695;BME280;4690;52.422;13.486;2024-03-23T04:29:28;100318.56;;;9.16;100.00
9695;BME280;4690;52.422;13.486;2024-03-23T04:31:54;100317.66;;;9.22;100.00
9695;BME280;4690;52.422;13.486;2024-03-23T04:34:21;100313.63;;;9.25;100.00
9695;BME280;4690;52.422;13.486;2024-03-23T04:36:48;100318.09;;;9.19;100.00
9695;BME280;4690;52.422;13.486;2024-03-23T04:39:13;100323.19;;;9.15;100.00
9695;BME280;4690;52.422;13.486;2024-03-23T04:41:39;100317.22;;;9.07;100.00
9695;BME280;4690;52.422;13.486;2024-03-23T04:44:06;100319.00;;;8.94;100.00
9695;BME280;4690;52.422;13.486;2024-03-23T04:46:31;100306.25;;;8.88;100.00
9695;BME280;4690;52.422;13.486;2024-03-23T04:48:57;100299.34;;;8.86;100.00
9695;BME280;4690;52.422;13.486;2024-03-23T04:51:23;100293.72;;;8.81;100.00
9695;BME280;4690;52.422;13.486;2024-03-23T04:53:49;100284.31;;;8.77;100.00
9695;BME280;4690;52.422;13.486;2024-03-23T04:56:16;100287.66;;;8.79;100.00
9695;BME280;4690;52.422;13.486;2024-03-23T04:58:43;100274.22;;;8.77;100.00
9695;BME280;4690;52.422;13.486;2024-03-23T05:01:10;100277.03;;;8.70;100.00
9695;BME280;4690;52.422;13.486;2024-03-23T05:03:36;100271.84;;;8.81;100.00
9695;BME280;4690;52.422;13.486;2024-03-23T05:06:01;100279.59;;;8.84;100.00
9695;BME280;4690;52.422;13.486;2024-03-23T05:08:27;100272.47;;;8.83;100.00
9695;BME280;4690;52.422;13.486;2024-03-23T05:10:53;100276.03;;;8.83;100.00
9695;BME280;4690;52.422;13.486;2024-03-23T05:13:19;100273.16;;;8.78;100.00
9695;BME280;4690;52.422;13.486;2024-03-23T05:15:51;100270.81;;;8.82;100.00
9695;BME280;4690;52.422;13.486;2024-03-23T05:18:17;100270.81;;;8.82;100.00
9695;BME280;4690;52.422;13.486;2024-03-23T05:20:43;100276.34;;;8.75;100.00
9695;BME280;4690;52.422;13.486;2024-03-23T05:23:09;100271.69;;;8.75;100.00
9695;BME280;4690;52.422;13.486;2024-03-23T05:25:35;100275.50;;;8.74;100.00
9695;BME280;4690;52.422;13.486;2024-03-23T05:28:01;100268.38;;;8.73;100.00
9695;BME280;4690;52.422;13.486;2024-03-23T05:30:27;100265.50;;;8.68;100.00
9695;BME280;4690;52.422;13.486;2024-03-23T05:32:52;100263.41;;;8.64;100.00
9695;BME280;4690;52.422;13.486;2024-03-23T05:35:18;100261.75;;;8.63;100.00
9695;BME280;4690;52.422;13.486;2024-03-23T05:37:44;100244.53;;;8.62;100.00
9695;BME280;4690;52.422;13.486;2024-03-23T05:40:11;100240.38;;;8.60;100.00
9695;BME280;4690;52.422;13.486;2024-03-23T05:42:38;100251.47;;;8.65;100.00
9695;BME280;4690;52.422;13.486;2024-03-23T05:45:04;100242.66;;;8.63;100.00
9695;BME280;4690;52.422;13.486;2024-03-23T05:47:32;100235.19;;;8.51;100.00
9695;BME280;4690;52.422;13.486;2024-03-23T05:49:57;100227.84;;;8.52;100.00
9695;BME280;4690;52.422;13.486;2024-03-23T05:52:23;100227.66;;;8.47;100.00
9695;BME280;4690;52.422;13.486;2024-03-23T05:54:51;100228.28;;;8.49;100.00
9695;BME280;4690;52.422;13.486;2024-03-23T05:57:17;100225.34;;;8.50;100.00
9695;BME280;4690;52.422;13.486;2024-03-23T05:59:44;100221.47;;;8.58;100.00
9695;BME280;4690;52.422;13.486;2024-03-23T06:02:10;100221.63;;;8.63;100.00
9695;BME280;4690;52.422;13.486;2024-03-23T06:04:36;100213.06;;;8.60;100.00
9695;BME280;4690;52.422;13.486;2024-03-23T06:07:03;100209.00;;;8.44;100.00
9695;BME280;4690;52.422;13.486;2024-03-23T06:09:31;100194.44;;;8.50;100.00
9695;BME280;4690;52.422;13.486;2024-03-23T06:11:57;100187.78;;;8.46;100.00
9695;BME280;4690;52.422;13.486;2024-03-23T06:14:23;100183.81;;;8.42;100.00
9695;BME280;4690;52.422;13.486;2024-03-23T06:16:49;100182.41;;;8.39;100.00
9695;BME280;4690;52.422;13.486;2024-03-23T06:19:14;100182.31;;;8.46;100.00
9695;BME280;4690;52.422;13.486;2024-03-23T06:21:44;100171.31;;;8.52;100.00
9695;BME280;4690;52.422;13.486;2024-03-23T06:24:11;100157.91;;;8.51;100.00
9695;BME280;4690;52.422;13.486;2024-03-23T06:26:38;100169.59;;;8.40;100.00
9695;BME280;4690;52.422;13.486;2024-03-23T06:29:03;100177.47;;;8.48;100.00
9695;BME280;4690;52.422;13.486;2024-03-23T06:31:31;100176.47;;;8.61;100.00
9695;BME280;4690;52.422;13.486;2024-03-23T06:33:57;100180.66;;;8.63;100.00
9695;BME280;4690;52.422;13.486;2024-03-23T06:36:22;100171.09;;;8.72;100.00
9695;BME280;4690;52.422;13.486;2024-03-23T06:38:48;100167.47;;;8.79;100.00
9695;BME280;4690;52.422;13.486;2024-03-23T06:41:14;100151.44;;;8.82;100.00
9695;BME280;4690;52.422;13.486;2024-03-23T06:43:40;100151.66;;;8.81;100.00
9695;BME280;4690;52.422;13.486;2024-03-23T06:46:06;100148.84;;;8.87;100.00
9695;BME280;4690;52.422;13.486;2024-03-23T06:48:32;100159.25;;;8.79;100.00
9695;BME280;4690;52.422;13.486;2024-03-23T06:50:58;100158.28;;;8.73;100.00
9695;BME280;4690;52.422;13.486;2024-03-23T06:53:24;100161.09;;;8.48;100.00
9695;BME280;4690;52.422;13.486;2024-03-23T06:55:52;100149.31;;;8.47;100.00
9695;BME280;4690;52.422;13.486;2024-03-23T06:58:20;100147.44;;;8.48;100.00
9695;BME280;4690;52.422;13.486;2024-03-23T07:00:46;100144.00;;;8.52;100.00
9695;BME280;4690;52.422;13.486;2024-03-23T07:03:12;100132.16;;;8.59;100.00
9695;BME280;4690;52.422;13.486;2024-03-23T07:05:38;100145.91;;;8.52;100.00
9695;BME280;4690;52.422;13.486;2024-03-23T07:08:04;100136.44;;;8.55;100.00
9695;BME280;4690;52.422;13.486;2024-03-23T07:10:30;100129.53;;;8.52;100.00
9695;BME280;4690;52.422;13.486;2024-03-23T07:12:55;100133.03;;;8.59;100.00
9695;BME280;4690;52.422;13.486;2024-03-23T07:15:21;100143.44;;;8.50;100.00
9695;BME280;4690;52.422;13.486;2024-03-23T07:17:47;100132.41;;;8.57;100.00
9695;BME280;4690;52.422;13.486;2024-03-23T07:20:13;100137.47;;;8.72;100.00
9695;BME280;4690;52.422;13.486;2024-03-23T07:22:39;100130.50;;;8.76;100.00
9695;BME280;4690;52.422;13.486;2024-03-23T07:25:06;100130.63;;;8.81;100.00
9695;BME280;4690;52.422;13.486;2024-03-23T07:27:32;100125.69;;;8.90;100.00
9695;BME280;4690;52.422;13.486;2024-03-23T07:29:59;100122.31;;;8.76;100.00
9695;BME280;4690;52.422;13.486;2024-03-23T07:32:27;100122.97;;;8.90;100.00
9695;BME280;4690;52.422;13.486;2024-03-23T07:34:52;100129.41;;;8.95;100.00
9695;BME280;4690;52.422;13.486;2024-03-23T07:37:18;100121.31;;;9.01;100.00
9695;BME280;4690;52.422;13.486;2024-03-23T07:39:44;100119.63;;;8.88;100.00
9695;BME280;4690;52.422;13.486;2024-03-23T07:42:10;100132.00;;;8.90;100.00
9695;BME280;4690;52.422;13.486;2024-03-23T07:44:36;100123.41;;;8.87;100.00
9695;BME280;4690;52.422;13.486;2024-03-23T07:47:02;100123.19;;;8.88;100.00
9695;BME280;4690;52.422;13.486;2024-03-23T07:49:27;100126.53;;;8.90;100.00
9695;BME280;4690;52.422;13.486;2024-03-23T07:51:53;100130.03;;;8.79;100.00
9695;BME280;4690;52.422;13.486;2024-03-23T07:54:19;100117.44;;;8.78;100.00
9695;BME280;4690;52.422;13.486;2024-03-23T07:56:45;100113.88;;;8.78;100.00
9695;BME280;4690;52.422;13.486;2024-03-23T07:59:10;100108.19;;;8.79;100.00
9695;BME280;4690;52.422;13.486;2024-03-23T08:01:36;100108.69;;;8.88;100.00
9695;BME280;4690;52.422;13.486;2024-03-23T08:04:02;100105.50;;;8.91;100.00
9695;BME280;4690;52.422;13.486;2024-03-23T08:06:28;100105.84;;;8.94;100.00
9695;BME280;4690;52.422;13.486;2024-03-23T08:08:58;100097.94;;;8.74;100.00
9695;BME280;4690;52.422;13.486;2024-03-23T08:11:28;100103.88;;;8.71;100.00
9695;BME280;4690;52.422;13.486;2024-03-23T08:13:54;100103.72;;;8.66;100.00
9695;BME280;4690;52.422;13.486;2024-03-23T08:16:21;100085.69;;;8.65;100.00
9695;BME280;4690;52.422;13.486;2024-03-23T08:18:47;100083.31;;;8.69;100.00
9695;BME280;4690;52.422;13.486;2024-03-23T08:21:13;100079.28;;;8.71;100.00
9695;BME280;4690;52.422;13.486;2024-03-23T08:23:39;100083.00;;;8.77;100.00
9695;BME280;4690;52.422;13.486;2024-03-23T08:26:11;100077.63;;;8.70;100.00
9695;BME280;4690;52.422;13.486;2024-03-23T08:28:37;100085.94;;;8.75;100.00
9695;BME280;4690;52.422;13.486;2024-03-23T08:31:08;100074.19;;;8.75;100.00
9695;BME280;4690;52.422;13.486;2024-03-23T08:33:35;100088.66;;;8.75;100.00
9695;BME280;4690;52.422;13.486;2024-03-23T08:36:06;100080.03;;;8.79;100.00
9695;BME280;4690;52.422;13.486;2024-03-23T08:38:34;100079.09;;;8.85;100.00
9695;BME280;4690;52.422;13.486;2024-03-23T08:41:05;100073.41;;;8.86;100.00
9695;BME280;4690;52.422;13.486;2024-03-23T08:43:35;100074.94;;;8.82;100.00
9695;BME280;4690;52.422;13.486;2024-03-23T08:46:11;100075.75;;;8.83;100.00
9695;BME280;4690;52.422;13.486;2024-03-23T08:48:45;100080.25;;;8.77;100.00
9695;BME280;4690;52.422;13.486;2024-03-23T08:51:14;100071.25;;;8.58;100.00
9695;BME280;4690;52.422;13.486;2024-03-23T08:53:40;100092.28;;;8.58;100.00
9695;BME280;4690;52.422;13.486;2024-03-23T08:56:08;100080.53;;;8.57;100.00
9695;BME280;4690;52.422;13.486;2024-03-23T08:58:35;100081.22;;;8.52;100.00
9695;BME280;4690;52.422;13.486;2024-03-23T09:01:09;100070.88;;;8.36;100.00
9695;BME280;4690;52.422;13.486;2024-03-23T09:03:36;100081.66;;;8.31;100.00
9695;BME280;4690;52.422;13.486;2024-03-23T09:06:09;100085.28;;;8.25;100.00
9695;BME280;4690;52.422;13.486;2024-03-23T09:08:36;100082.50;;;8.31;100.00
9695;BME280;4690;52.422;13.486;2024-03-23T09:11:13;100077.44;;;8.17;100.00
9695;BME280;4690;52.422;13.486;2024-03-23T09:13:39;100092.81;;;8.11;100.00
9695;BME280;4690;52.422;13.486;2024-03-23T09:16:07;100087.78;;;8.08;100.00
9695;BME280;4690;52.422;13.486;2024-03-23T09:18:36;100093.63;;;7.93;100.00
9695;BME280;4690;52.422;13.486;2024-03-23T09:21:03;100092.25;;;7.84;100.00
9695;BME280;4690;52.422;13.486;2024-03-23T09:23:29;100100.22;;;7.85;100.00
9695;BME280;4690;52.422;13.486;2024-03-23T09:25:55;100099.59;;;7.83;100.00
9695;BME280;4690;52.422;13.486;2024-03-23T09:28:22;100106.78;;;7.78;100.00
9695;BME280;4690;52.422;13.486;2024-03-23T09:30:48;100102.00;;;7.73;100.00
9695;BME280;4690;52.422;13.486;2024-03-23T09:33:13;100101.34;;;7.78;100.00
9695;BME280;4690;52.422;13.486;2024-03-23T09:35:41;100107.16;;;7.63;100.00
9695;BME280;4690;52.422;13.486;2024-03-23T09:38:08;100121.25;;;7.53;100.00
9695;BME280;4690;52.422;13.486;2024-03-23T09:40:40;100123.25;;;7.39;100.00
9695;BME280;4690;52.422;13.486;2024-03-23T09:43:07;100123.88;;;7.41;100.00
9695;BME280;4690;52.422;13.486;2024-03-23T09:45:38;100126.06;;;7.26;100.00
9695;BME280;4690;52.422;13.486;2024-03-23T09:48:05;100124.06;;;7.15;100.00
9695;BME280;4690;52.422;13.486;2024-03-23T09:50:32;100147.56;;;7.09;100.00
9695;BME280;4690;52.422;13.486;2024-03-23T09:52:58;100148.06;;;7.00;100.00
9695;BME280;4690;52.422;13.486;2024-03-23T09:55:23;100161.03;;;6.97;100.00
9695;BME280;4690;52.422;13.486;2024-03-23T09:57:50;100169.59;;;7.08;100.00
9695;BME280;4690;52.422;13.486;2024-03-23T10:00:16;100178.31;;;6.85;100.00
9695;BME280;4690;52.422;13.486;2024-03-23T10:02:42;100188.38;;;6.84;100.00
9695;BME280;4690;52.422;13.486;2024-03-23T10:05:22;100190.06;;;6.79;100.00
9695;BME280;4690;52.422;13.486;2024-03-23T10:07:51;100198.19;;;6.85;100.00
9695;BME280;4690;52.422;13.486;2024-03-23T10:10:17;100206.75;;;6.89;100.00
9695;BME280;4690;52.422;13.486;2024-03-23T10:12:48;100199.66;;;6.88;100.00
9695;BME280;4690;52.422;13.486;2024-03-23T10:15:24;100204.03;;;6.95;100.00
9695;BME280;4690;52.422;13.486;2024-03-23T10:17:51;100203.41;;;6.93;100.00
9695;BME280;4690;52.422;13.486;2024-03-23T10:20:23;100203.59;;;6.99;100.00
9695;BME280;4690;52.422;13.486;2024-03-23T10:22:50;100210.66;;;7.06;100.00
9695;BME280;4690;52.422;13.486;2024-03-23T10:25:23;100205.44;;;7.05;100.00
9695;BME280;4690;52.422;13.486;2024-03-23T10:28:01;100206.53;;;6.97;100.00
9695;BME280;4690;52.422;13.486;2024-03-23T10:30:27;100204.88;;;6.89;100.00
9695;BME280;4690;52.422;13.486;2024-03-23T10:33:10;100213.47;;;6.86;100.00
9695;BME280;4690;52.422;13.486;2024-03-23T10:35:39;100216.88;;;6.82;100.00
9695;BME280;4690;52.422;13.486;2024-03-23T10:38:07;100216.44;;;6.78;100.00
9695;BME280;4690;52.422;13.486;2024-03-23T10:40:37;100222.16;;;6.63;100.00
9695;BME280;4690;52.422;13.486;2024-03-23T10:43:08;100231.38;;;6.62;100.00
9695;BME280;4690;52.422;13.486;2024-03-23T10:45:34;100235.34;;;6.73;100.00
9695;BME280;4690;52.422;13.486;2024-03-23T10:48:01;100228.19;;;6.72;100.00
9695;BME280;4690;52.422;13.486;2024-03-23T10:50:28;100228.63;;;6.69;100.00
9695;BME280;4690;52.422;13.486;2024-03-23T10:52:54;100229.03;;;6.79;100.00
9695;BME280;4690;52.422;13.486;2024-03-23T10:55:24;100241.97;;;6.84;100.00
9695;BME280;4690;52.422;13.486;2024-03-23T10:57:55;100239.53;;;6.62;100.00
9695;BME280;4690;52.422;13.486;2024-03-23T11:00:22;100239.47;;;6.76;100.00
9695;BME280;4690;52.422;13.486;2024-03-23T11:02:48;100242.56;;;6.92;100.00
9695;BME280;4690;52.422;13.486;2024-03-23T11:07:53;100258.69;;;7.01;100.00
9695;BME280;4690;52.422;13.486;2024-03-23T11:10:30;100258.09;;;6.92;99.79
9695;BME280;4690;52.422;13.486;2024-03-23T11:13:24;100252.03;;;6.90;100.00
9695;BME280;4690;52.422;13.486;2024-03-23T11:15:50;100244.47;;;6.92;100.00
9695;BME280;4690;52.422;13.486;2024-03-23T11:18:21;100253.91;;;6.96;99.56
9695;BME280;4690;52.422;13.486;2024-03-23T11:20:47;100253.47;;;6.92;99.33
9695;BME280;4690;52.422;13.486;2024-03-23T11:23:33;100248.06;;;6.86;99.39
9695;BME280;4690;52.422;13.486;2024-03-23T11:25:58;100252.00;;;6.96;100.00
9695;BME280;4690;52.422;13.486;2024-03-23T11:28:24;100257.38;;;7.16;100.00
9695;BME280;4690;52.422;13.486;2024-03-23T11:30:50;100256.69;;;7.28;100.00
9695;BME280;4690;52.422;13.486;2024-03-23T11:33:16;100252.88;;;7.35;99.04
9695;BME280;4690;52.422;13.486;2024-03-23T11:35:42;100246.53;;;7.41;99.30
9695;BME280;4690;52.422;13.486;2024-03-23T11:38:16;100260.63;;;7.38;98.51
9695;BME280;4690;52.422;13.486;2024-03-23T11:40:47;100266.09;;;7.32;98.78
9695;BME280;4690;52.422;13.486;2024-03-23T11:43:16;100272.22;;;7.21;98.98
9695;BME280;4690;52.422;13.486;2024-03-23T11:45:52;100274.81;;;7.02;99.22
9695;BME280;4690;52.422;13.486;2024-03-23T11:48:23;100271.66;;;7.05;99.42
9695;BME280;4690;52.422;13.486;2024-03-23T11:50:55;100276.63;;;7.15;99.75
9695;BME280;4690;52.422;13.486;2024-03-23T11:53:22;100277.66;;;7.27;99.77
9695;BME280;4690;52.422;13.486;2024-03-23T11:55:59;100276.69;;;7.08;99.46
9695;BME280;4690;52.422;13.486;2024-03-23T11:58:27;100266.59;;;7.09;99.70
9695;BME280;4690;52.422;13.486;2024-03-23T12:00:58;100260.03;;;7.30;100.00
9695;BME280;4690;52.422;13.486;2024-03-23T12:03:25;100259.88;;;7.18;99.06
9695;BME280;4690;52.422;13.486;2024-03-23T12:05:56;100258.78;;;7.26;99.67
9695;BME280;4690;52.422;13.486;2024-03-23T12:11:07;100278.34;;;7.09;99.81
9695;BME280;4690;52.422;13.486;2024-03-23T12:13:34;100268.44;;;6.63;100.00
9695;BME280;4690;52.422;13.486;2024-03-23T12:16:19;100265.66;;;6.83;100.00
9695;BME280;4690;52.422;13.486;2024-03-23T12:18:48;100263.28;;;7.00;100.00
9695;BME280;4690;52.422;13.486;2024-03-23T12:21:15;100264.03;;;7.21;100.00
9695;BME280;4690;52.422;13.486;2024-03-23T12:23:43;100262.09;;;6.83;100.00
9695;BME280;4690;52.422;13.486;2024-03-23T12:26:11;100266.81;;;6.42;100.00
9695;BME280;4690;52.422;13.486;2024-03-23T12:28:37;100267.81;;;6.55;100.00
9695;BME280;4690;52.422;13.486;2024-03-23T12:31:04;100267.75;;;6.81;100.00
9695;BME280;4690;52.422;13.486;2024-03-23T12:33:30;100264.13;;;7.01;100.00
9695;BME280;4690;52.422;13.486;2024-03-23T12:35:55;100271.63;;;7.12;100.00
9695;BME280;4690;52.422;13.486;2024-03-23T12:38:21;100261.00;;;6.97;100.00
9695;BME280;4690;52.422;13.486;2024-03-23T12:40:48;100264.97;;;7.01;100.00
9695;BME280;4690;52.422;13.486;2024-03-23T12:43:14;100262.13;;;7.28;100.00
9695;BME280;4690;52.422;13.486;2024-03-23T12:45:41;100261.50;;;7.26;100.00
9695;BME280;4690;52.422;13.486;2024-03-23T12:48:07;100265.88;;;7.33;100.00
9695;BME280;4690;52.422;13.486;2024-03-23T12:50:33;100259.09;;;7.04;100.00
9695;BME280;4690;52.422;13.486;2024-03-23T12:52:59;100256.19;;;6.92;100.00
9695;BME280;4690;52.422;13.486;2024-03-23T12:55:24;100257.41;;;7.03;100.00
9695;BME280;4690;52.422;13.486;2024-03-23T12:57:50;100256.06;;;7.26;100.00
9695;BME280;4690;52.422;13.486;2024-03-23T13:00:16;100257.38;;;7.55;100.00
9695;BME280;4690;52.422;13.486;2024-03-23T13:02:42;100270.44;;;7.46;100.00
9695;BME280;4690;52.422;13.486;2024-03-23T13:05:08;100250.06;;;7.49;100.00
9695;BME280;4690;52.422;13.486;2024-03-23T13:07:36;100254.72;;;7.41;100.00
9695;BME280;4690;52.422;13.486;2024-03-23T13:10:05;100248.91;;;7.31;100.00
9695;BME280;4690;52.422;13.486;2024-03-23T13:12:31;100241.41;;;7.27;100.00
9695;BME280;4690;52.422;13.486;2024-03-23T13:15:01;100238.53;;;7.08;100.00
9695;BME280;4690;52.422;13.486;2024-03-23T13:17:27;100249.00;;;7.18;100.00
9695;BME280;4690;52.422;13.486;2024-03-23T13:19:56;100240.75;;;7.63;100.00
9695;BME280;4690;52.422;13.486;2024-03-23T13:22:22;100244.19;;;7.77;100.00
9695;BME280;4690;52.422;13.486;2024-03-23T13:24:48;100239.91;;;7.62;100.00
9695;BME280;4690;52.422;13.486;2024-03-23T13:27:14;100231.00;;;7.74;100.00
9695;BME280;4690;52.422;13.486;2024-03-23T13:29:40;100233.38;;;7.95;100.00
9695;BME280;4690;52.422;13.486;2024-03-23T13:32:06;100240.41;;;8.53;100.00
9695;BME280;4690;52.422;13.486;2024-03-23T13:34:32;100224.22;;;8.77;100.00
9695;BME280;4690;52.422;13.486;2024-03-23T13:37:00;100236.50;;;9.34;100.00
9695;BME280;4690;52.422;13.486;2024-03-23T13:39:26;100228.13;;;9.48;94.28
9695;BME280;4690;52.422;13.486;2024-03-23T13:41:55;100224.22;;;10.09;94.76
9695;BME280;4690;52.422;13.486;2024-03-23T13:44:21;100222.72;;;10.37;89.83
9695;BME280;4690;52.422;13.486;2024-03-23T13:46:47;100231.13;;;10.00;88.96
9695;BME280;4690;52.422;13.486;2024-03-23T13:49:29;100230.16;;;9.52;91.25
9695;BME280;4690;52.422;13.486;2024-03-23T13:51:56;100225.16;;;10.03;92.18
9695;BME280;4690;52.422;13.486;2024-03-23T13:54:26;100237.31;;;9.53;87.83
9695;BME280;4690;52.422;13.486;2024-03-23T13:56:54;100218.41;;;9.52;91.71
9695;BME280;4690;52.422;13.486;2024-03-23T13:59:20;100223.31;;;9.73;92.46